Terminal Aerodrome Forecast
Issued by NWS

Home | Current Version | Previous Version | Text Only | Print | Product List | Glossary On
Versions: 1 2 3 4 5 6 7 8 9 10 11 12 13 14 15 16 17 18 19
000
FTUS46 KMFR 101131
TAFRBG
TAF
KRBG 101131Z 1012/1112 00000KT 3SM -RA BR SCT007 OVC020
     FM101300 VRB03KT 2SM -SHRA BR BKN010 OVC020
     FM102000 21007KT P6SM VCSH SCT015 OVC035
     FM110200 17003KT P6SM -SHRA FEW007 OVC015
     FM110700 VRB02KT 3SM -RA BR OVC008=

USA.gov is the U.S. government's official web portal to all federal, state and local government web resources and services.